createdAt,value
2022-09-16T00:03:17.863Z,14.99
2022-09-16T00:08:21.264Z,14.97
2022-09-16T00:13:23.155Z,14.95
2022-09-16T00:18:25.339Z,14.90
2022-09-16T00:23:27.222Z,14.88
2022-09-16T00:28:29.045Z,14.84
2022-09-16T00:33:31.793Z,14.78
2022-09-16T00:38:33.735Z,14.75
2022-09-16T00:44:27.642Z,14.74
2022-09-16T00:49:31.283Z,14.70
2022-09-16T00:54:37.729Z,14.66
2022-09-16T00:59:44.452Z,14.64
2022-09-16T01:05:07.075Z,14.63
2022-09-16T01:10:09.546Z,14.58
2022-09-16T01:15:14.098Z,14.54
2022-09-16T01:20:40.778Z,14.49
2022-09-16T01:26:16.747Z,14.44
2022-09-16T01:31:34.779Z,14.39
2022-09-16T01:36:49.219Z,14.38
2022-09-16T01:42:16.098Z,14.37
2022-09-16T01:47:39.319Z,14.35
2022-09-16T01:53:15.475Z,14.33
2022-09-16T01:58:35.845Z,14.34
2022-09-16T02:03:41.984Z,14.35
2022-09-16T02:08:49.892Z,14.38
2022-09-16T02:14:02.250Z,14.38
2022-09-16T02:19:12.573Z,14.40
2022-09-16T02:24:19.982Z,14.44
2022-09-16T02:29:26.055Z,14.46
2022-09-16T02:34:32.943Z,14.47
2022-09-16T02:39:40.495Z,14.46
2022-09-16T02:44:43.830Z,14.45
2022-09-16T02:50:22.959Z,14.43
2022-09-16T02:55:52.260Z,14.41
2022-09-16T03:00:55.507Z,14.40
2022-09-16T03:06:00.359Z,14.41
2022-09-16T03:11:18.853Z,14.43
2022-09-16T03:16:47.726Z,14.44
2022-09-16T03:22:18.151Z,14.44
2022-09-16T03:27:56.103Z,14.40
2022-09-16T03:33:10.708Z,14.36
2022-09-16T03:38:14.794Z,14.30
2022-09-16T03:43:17.602Z,14.23
2022-09-16T03:48:19.763Z,14.21
2022-09-16T03:53:21.653Z,14.16
2022-09-16T03:58:23.424Z,14.13
2022-09-16T04:03:27.120Z,14.11
2022-09-16T04:08:32.448Z,14.08
2022-09-16T04:13:35.655Z,14.06
2022-09-16T04:18:37.827Z,14.04
2022-09-16T04:23:39.666Z,14.02
2022-09-16T04:28:41.709Z,14.02
2022-09-16T04:33:43.713Z,14.01
2022-09-16T04:38:50.193Z,14.02
2022-09-16T04:43:56.474Z,14.03
2022-09-16T04:49:00.067Z,14.04
2022-09-16T04:54:02.041Z,14.05
2022-09-16T04:59:05.794Z,14.04
2022-09-16T05:04:08.515Z,14.06
2022-09-16T05:09:12.352Z,14.07
2022-09-16T05:14:17.854Z,14.07
2022-09-16T05:19:20.253Z,14.05
2022-09-16T05:24:22.106Z,14.05
2022-09-16T05:29:23.968Z,14.05
2022-09-16T05:34:28.827Z,14.07
2022-09-16T05:39:30.835Z,14.07
2022-09-16T05:44:32.676Z,14.10
2022-09-16T05:49:34.486Z,14.12
2022-09-16T05:54:36.313Z,14.11
2022-09-16T05:59:38.135Z,14.11
2022-09-16T06:04:40.002Z,14.11
2022-09-16T06:09:41.943Z,14.11
2022-09-16T06:14:43.724Z,14.12
2022-09-16T06:19:45.867Z,14.10
2022-09-16T06:24:47.907Z,14.11
2022-09-16T06:29:49.972Z,14.10
2022-09-16T06:34:52.407Z,14.14
2022-09-16T06:39:54.261Z,14.19
2022-09-16T06:44:56.412Z,14.22
2022-09-16T06:49:58.258Z,14.22
2022-09-16T06:55:00.046Z,14.23
2022-09-16T07:00:04.285Z,14.23
2022-09-16T07:05:06.485Z,14.27
2022-09-16T07:10:09.135Z,14.32
2022-09-16T07:15:11.117Z,14.34
2022-09-16T07:20:13.130Z,14.38
2022-09-16T07:25:15.096Z,14.43
2022-09-16T07:30:16.942Z,14.47
2022-09-16T07:35:18.777Z,14.48
2022-09-16T07:40:20.770Z,14.54
2022-09-16T07:45:22.655Z,14.60
2022-09-16T07:50:24.487Z,14.62
2022-09-16T07:55:27.643Z,14.64
2022-09-16T08:00:29.629Z,14.72
2022-09-16T08:05:31.678Z,14.79
2022-09-16T08:10:33.644Z,14.81
2022-09-16T08:15:35.588Z,14.86
2022-09-16T08:20:37.688Z,15.02
2022-09-16T08:25:39.607Z,15.12
2022-09-16T08:30:42.763Z,15.21
2022-09-16T08:35:44.598Z,15.36
2022-09-16T08:40:46.888Z,15.58
2022-09-16T08:46:19.818Z,15.74
2022-09-16T08:51:23.138Z,15.75
2022-09-16T08:56:29.482Z,15.68
2022-09-16T09:01:44.283Z,15.75
2022-09-16T09:06:49.372Z,15.75
2022-09-16T09:12:11.867Z,15.57
2022-09-16T09:17:55.686Z,15.33
2022-09-16T09:23:00.427Z,15.28
2022-09-16T09:28:05.116Z,15.29
2022-09-16T09:33:47.072Z,15.29
2022-09-16T09:39:13.497Z,15.33
2022-09-16T09:44:37.132Z,15.48
2022-09-16T09:49:47.913Z,15.51
2022-09-16T09:54:52.409Z,15.66
2022-09-16T10:00:02.610Z,15.82
2022-09-16T10:05:24.751Z,16.07
2022-09-16T10:10:31.491Z,16.20
2022-09-16T10:15:34.534Z,16.23
2022-09-16T10:20:43.354Z,16.05
2022-09-16T10:25:45.266Z,16.07
2022-09-16T10:30:51.302Z,16.25
2022-09-16T10:36:20.865Z,16.29
2022-09-16T10:41:28.952Z,16.17
2022-09-16T10:46:31.548Z,15.86
2022-09-16T10:51:34.755Z,15.46
2022-09-16T10:56:49.479Z,15.14
2022-09-16T11:01:54.695Z,15.05
2022-09-16T11:07:25.791Z,14.99
2022-09-16T11:12:55.501Z,15.06
2022-09-16T11:18:24.362Z,15.29
2022-09-16T11:23:38.294Z,15.55
2022-09-16T11:28:50.020Z,15.63
2022-09-16T11:34:24.485Z,15.59
2022-09-16T11:39:52.670Z,15.44
2022-09-16T11:45:29.215Z,15.31
2022-09-16T11:50:42.740Z,15.29
2022-09-16T11:55:45.668Z,15.44
2022-09-16T12:00:50.065Z,15.57
2022-09-16T12:06:04.737Z,15.62
2022-09-16T12:11:33.270Z,15.69
2022-09-16T12:16:42.592Z,15.73
2022-09-16T12:21:57.873Z,15.74
2022-09-16T12:27:17.730Z,15.78
2022-09-16T12:32:48.175Z,15.80
2022-09-16T12:37:55.014Z,15.77
2022-09-16T12:43:41.321Z,15.78
2022-09-16T12:49:16.350Z,15.88
2022-09-16T12:55:11.354Z,15.93
2022-09-16T13:00:27.397Z,16.04
2022-09-16T13:05:38.089Z,16.09
2022-09-16T13:11:11.595Z,15.95
2022-09-16T13:16:07.561Z,15.96
2022-09-16T13:21:28.124Z,15.91
2022-09-16T13:26:41.963Z,15.85
2022-09-16T13:31:48.850Z,15.85
2022-09-16T13:36:51.514Z,15.84
2022-09-16T13:41:53.406Z,15.91
2022-09-16T13:46:55.198Z,16.02
2022-09-16T13:51:57.052Z,16.09
2022-09-16T13:57:40.922Z,16.17
2022-09-16T14:02:49.069Z,16.24
2022-09-16T14:07:56.901Z,16.18
2022-09-16T14:13:11.086Z,16.18
2022-09-16T14:18:17.939Z,16.11
2022-09-16T14:23:20.526Z,16.11
2022-09-16T14:28:27.930Z,16.14
2022-09-16T14:33:37.423Z,16.18
2022-09-16T14:38:46.567Z,16.19
2022-09-16T14:44:19.206Z,16.22
2022-09-16T14:49:22.551Z,16.19
2022-09-16T14:54:27.453Z,16.16
2022-09-16T14:59:42.028Z,16.18
2022-09-16T15:04:50.898Z,16.17
2022-09-16T15:10:06.407Z,16.18
2022-09-16T15:15:29.792Z,16.22
2022-09-16T15:20:38.709Z,16.17
2022-09-16T15:25:40.557Z,16.14
2022-09-16T15:30:51.002Z,16.14
2022-09-16T15:35:53.487Z,16.17
2022-09-16T15:41:21.452Z,16.21
2022-09-16T15:46:24.435Z,16.23
2022-09-16T15:51:49.331Z,16.20
2022-09-16T15:57:06.659Z,16.11
2022-09-16T16:02:32.971Z,15.99
2022-09-16T16:07:41.397Z,15.86
2022-09-16T16:12:48.008Z,15.76
2022-09-16T16:17:50.602Z,15.70
2022-09-16T16:22:53.516Z,15.66
2022-09-16T16:27:55.787Z,15.62
2022-09-16T16:32:57.608Z,15.57
2022-09-16T16:37:59.559Z,15.51
2022-09-16T16:43:01.653Z,15.48
2022-09-16T16:48:03.532Z,15.44
2022-09-16T16:53:06.339Z,15.42
2022-09-16T16:58:08.185Z,15.35
2022-09-16T17:03:09.997Z,15.30
2022-09-16T17:08:12.076Z,15.24
2022-09-16T17:13:14.217Z,15.20
2022-09-16T17:18:16.298Z,15.13
2022-09-16T17:23:18.123Z,15.09
2022-09-16T17:28:19.944Z,15.04
2022-09-16T17:33:22.051Z,15.00
2022-09-16T17:38:24.041Z,14.95
2022-09-16T17:43:31.414Z,14.89
2022-09-16T17:48:36.502Z,14.85
2022-09-16T17:53:38.485Z,14.78
2022-09-16T17:58:44.001Z,14.74
2022-09-16T18:03:48.041Z,14.68
2022-09-16T18:08:51.168Z,14.63
2022-09-16T18:13:58.228Z,14.58
2022-09-16T18:19:02.058Z,14.53
2022-09-16T18:24:05.642Z,14.48
2022-09-16T18:29:10.871Z,14.43
2022-09-16T18:34:14.294Z,14.40
2022-09-16T18:39:17.246Z,14.35
2022-09-16T18:44:23.834Z,14.32
2022-09-16T18:49:28.003Z,14.26
2022-09-16T18:54:30.029Z,14.24
2022-09-16T18:59:34.254Z,14.19
2022-09-16T19:04:41.821Z,14.16
2022-09-16T19:09:45.484Z,14.13
2022-09-16T19:14:47.490Z,14.10
2022-09-16T19:19:50.909Z,14.09
2022-09-16T19:24:54.326Z,14.06
2022-09-16T19:29:56.386Z,14.02
2022-09-16T19:34:58.351Z,14.00
2022-09-16T19:40:00.549Z,13.96
2022-09-16T19:45:02.707Z,13.94
2022-09-16T19:50:06.157Z,13.95
2022-09-16T19:55:09.537Z,13.96
2022-09-16T20:00:14.542Z,13.96
2022-09-16T20:05:16.420Z,13.95
2022-09-16T20:10:18.983Z,13.93
2022-09-16T20:15:20.845Z,13.90
2022-09-16T20:20:23.179Z,13.86
2022-09-16T20:25:25.383Z,13.82
2022-09-16T20:30:27.432Z,13.76
2022-09-16T20:35:29.223Z,13.71
2022-09-16T20:40:31.452Z,13.67
2022-09-16T20:45:38.187Z,13.63
2022-09-16T20:50:44.707Z,13.57
2022-09-16T20:55:46.888Z,13.53
2022-09-16T21:00:49.865Z,13.50
2022-09-16T21:05:52.043Z,13.48
2022-09-16T21:10:53.774Z,13.46
2022-09-16T21:15:57.547Z,13.46
2022-09-16T21:21:04.443Z,13.46
2022-09-16T21:26:17.880Z,13.45
2022-09-16T21:31:19.786Z,13.43
2022-09-16T21:36:23.728Z,13.43
2022-09-16T21:41:26.623Z,13.43
2022-09-16T21:46:35.223Z,13.42
2022-09-16T21:51:38.050Z,13.42
2022-09-16T21:56:40.685Z,13.41
2022-09-16T22:01:42.745Z,13.40
2022-09-16T22:06:44.990Z,13.36
2022-09-16T22:11:47.592Z,13.33
2022-09-16T22:16:49.465Z,13.30
2022-09-16T22:21:51.633Z,13.28
2022-09-16T22:26:53.362Z,13.24
2022-09-16T22:31:55.114Z,13.20
2022-09-16T22:36:56.846Z,13.19
2022-09-16T22:41:58.715Z,13.15
2022-09-16T22:47:00.799Z,13.12
2022-09-16T22:52:02.957Z,13.10
2022-09-16T22:57:04.917Z,13.06
2022-09-16T23:02:06.834Z,13.01
2022-09-16T23:07:10.128Z,12.97
2022-09-16T23:12:16.029Z,12.92
2022-09-16T23:17:17.866Z,12.87
2022-09-16T23:22:19.716Z,12.83
2022-09-16T23:27:21.491Z,12.79
2022-09-16T23:32:23.307Z,12.75
2022-09-16T23:37:25.166Z,12.72
2022-09-16T23:42:27.666Z,12.69
2022-09-16T23:47:29.527Z,12.67
2022-09-16T23:52:31.368Z,12.67
2022-09-16T23:57:33.335Z,12.65
